sensor_id;sensor_type;location;lat;lon;timestamp;temperature;humidity
26575;DHT22;67165;50.256;10.978;2024-01-30T00:01:58;-1.00;98.00
26575;DHT22;67165;50.256;10.978;2024-01-30T00:04:24;-1.00;98.00
26575;DHT22;67165;50.256;10.978;2024-01-30T00:06:51;-1.00;98.00
26575;DHT22;67165;50.256;10.978;2024-01-30T00:09:18;-1.00;98.00
26575;DHT22;67165;50.256;10.978;2024-01-30T00:11:45;-1.00;98.00
26575;DHT22;67165;50.256;10.978;2024-01-30T00:14:11;-1.00;98.00
26575;DHT22;67165;50.256;10.978;2024-01-30T00:16:36;-1.00;98.00
26575;DHT22;67165;50.256;10.978;2024-01-30T00:19:02;-1.00;98.00
26575;DHT22;67165;50.256;10.978;2024-01-30T00:21:29;-1.00;98.00
26575;DHT22;67165;50.256;10.978;2024-01-30T00:23:54;-0.90;98.00
26575;DHT22;67165;50.256;10.978;2024-01-30T00:26:20;-0.90;98.00
26575;DHT22;67165;50.256;10.978;2024-01-30T00:28:46;-0.90;98.00
26575;DHT22;67165;50.256;10.978;2024-01-30T00:31:12;-0.90;98.00
26575;DHT22;67165;50.256;10.978;2024-01-30T00:33:41;-0.90;98.00
26575;DHT22;67165;50.256;10.978;2024-01-30T00:36:09;-0.90;98.00
26575;DHT22;67165;50.256;10.978;2024-01-30T00:38:35;-0.90;98.00
26575;DHT22;67165;50.256;10.978;2024-01-30T00:41:01;-1.00;98.00
26575;DHT22;67165;50.256;10.978;2024-01-30T00:43:30;-0.90;98.00
26575;DHT22;67165;50.256;10.978;2024-01-30T00:45:56;-0.90;98.00
26575;DHT22;67165;50.256;10.978;2024-01-30T00:48:23;-0.90;98.00
26575;DHT22;67165;50.256;10.978;2024-01-30T00:50:49;-0.90;98.00
26575;DHT22;67165;50.256;10.978;2024-01-30T00:53:15;-0.80;98.00
26575;DHT22;67165;50.256;10.978;2024-01-30T00:55:41;-0.80;98.00
26575;DHT22;67165;50.256;10.978;2024-01-30T00:58:06;-0.90;98.00
26575;DHT22;67165;50.256;10.978;2024-01-30T01:00:32;-0.90;98.00
26575;DHT22;67165;50.256;10.978;2024-01-30T01:02:59;-0.90;98.00
26575;DHT22;67165;50.256;10.978;2024-01-30T01:05:25;-1.00;98.00
26575;DHT22;67165;50.256;10.978;2024-01-30T01:07:51;-1.00;98.00
26575;DHT22;67165;50.256;10.978;2024-01-30T01:10:17;-1.00;98.00
26575;DHT22;67165;50.256;10.978;2024-01-30T01:12:44;-1.00;98.00
26575;DHT22;67165;50.256;10.978;2024-01-30T01:15:10;-1.10;98.00
26575;DHT22;67165;50.256;10.978;2024-01-30T01:17:39;-1.00;98.00
26575;DHT22;67165;50.256;10.978;2024-01-30T01:20:06;-1.10;98.00
26575;DHT22;67165;50.256;10.978;2024-01-30T01:22:33;-1.10;98.00
26575;DHT22;67165;50.256;10.978;2024-01-30T01:25:00;-1.10;98.00
26575;DHT22;67165;50.256;10.978;2024-01-30T01:27:25;-1.00;98.00
26575;DHT22;67165;50.256;10.978;2024-01-30T01:29:52;-1.10;98.00
26575;DHT22;67165;50.256;10.978;2024-01-30T01:32:18;-1.10;98.00
26575;DHT22;67165;50.256;10.978;2024-01-30T01:34:44;-1.10;98.00
26575;DHT22;67165;50.256;10.978;2024-01-30T01:37:10;-1.10;98.00
26575;DHT22;67165;50.256;10.978;2024-01-30T01:39:35;-1.10;98.00
26575;DHT22;67165;50.256;10.978;2024-01-30T01:42:01;-1.10;98.00
26575;DHT22;67165;50.256;10.978;2024-01-30T01:44:27;-1.10;98.00
26575;DHT22;67165;50.256;10.978;2024-01-30T01:46:54;-1.10;98.00
26575;DHT22;67165;50.256;10.978;2024-01-30T01:49:22;-0.90;98.00
26575;DHT22;67165;50.256;10.978;2024-01-30T01:51:50;-1.00;98.00
26575;DHT22;67165;50.256;10.978;2024-01-30T01:54:17;-0.90;98.00
26575;DHT22;67165;50.256;10.978;2024-01-30T01:56:43;-0.90;98.00
26575;DHT22;67165;50.256;10.978;2024-01-30T01:59:09;-0.80;98.00
26575;DHT22;67165;50.256;10.978;2024-01-30T02:01:38;-0.70;98.00
26575;DHT22;67165;50.256;10.978;2024-01-30T02:04:07;-0.70;98.00
26575;DHT22;67165;50.256;10.978;2024-01-30T02:06:36;-0.60;98.00
26575;DHT22;67165;50.256;10.978;2024-01-30T02:09:03;-0.20;98.00
26575;DHT22;67165;50.256;10.978;2024-01-30T02:11:30;0.10;98.00
26575;DHT22;67165;50.256;10.978;2024-01-30T02:13:56;0.30;98.00
26575;DHT22;67165;50.256;10.978;2024-01-30T02:16:21;0.60;98.00
26575;DHT22;67165;50.256;10.978;2024-01-30T02:18:47;0.80;98.00
26575;DHT22;67165;50.256;10.978;2024-01-30T02:21:17;0.70;98.00
26575;DHT22;67165;50.256;10.978;2024-01-30T02:23:44;0.50;98.00
26575;DHT22;67165;50.256;10.978;2024-01-30T02:26:11;0.40;98.00
26575;DHT22;67165;50.256;10.978;2024-01-30T02:28:37;0.20;98.00
26575;DHT22;67165;50.256;10.978;2024-01-30T02:31:04;0.00;98.00
26575;DHT22;67165;50.256;10.978;2024-01-30T02:33:30;-0.10;98.00
26575;DHT22;67165;50.256;10.978;2024-01-30T02:35:55;-0.20;98.00
26575;DHT22;67165;50.256;10.978;2024-01-30T02:38:21;-0.20;98.00
26575;DHT22;67165;50.256;10.978;2024-01-30T02:40:48;-0.30;98.00
26575;DHT22;67165;50.256;10.978;2024-01-30T02:43:15;-0.40;98.00
26575;DHT22;67165;50.256;10.978;2024-01-30T02:45:41;-0.60;98.00
26575;DHT22;67165;50.256;10.978;2024-01-30T02:48:07;-0.60;98.00
26575;DHT22;67165;50.256;10.978;2024-01-30T02:50:32;-0.60;98.00
26575;DHT22;67165;50.256;10.978;2024-01-30T02:52:58;-0.60;98.00
26575;DHT22;67165;50.256;10.978;2024-01-30T02:55:24;-0.70;98.00
26575;DHT22;67165;50.256;10.978;2024-01-30T02:57:50;-0.70;98.00
26575;DHT22;67165;50.256;10.978;2024-01-30T03:00:15;-0.80;98.00
26575;DHT22;67165;50.256;10.978;2024-01-30T03:02:41;-0.80;98.00
26575;DHT22;67165;50.256;10.978;2024-01-30T03:05:08;-0.90;98.00
26575;DHT22;67165;50.256;10.978;2024-01-30T03:07:34;-0.90;98.00
26575;DHT22;67165;50.256;10.978;2024-01-30T03:10:00;-1.00;98.00
26575;DHT22;67165;50.256;10.978;2024-01-30T03:12:26;-1.10;98.00
26575;DHT22;67165;50.256;10.978;2024-01-30T03:14:51;-1.10;98.00
26575;DHT22;67165;50.256;10.978;2024-01-30T03:17:18;-1.10;98.00
26575;DHT22;67165;50.256;10.978;2024-01-30T03:19:43;-1.20;98.00
26575;DHT22;67165;50.256;10.978;2024-01-30T03:22:09;-1.20;98.00
26575;DHT22;67165;50.256;10.978;2024-01-30T03:24:35;-1.20;98.00
26575;DHT22;67165;50.256;10.978;2024-01-30T03:27:01;-1.20;98.00
26575;DHT22;67165;50.256;10.978;2024-01-30T03:29:26;-1.20;98.00
26575;DHT22;67165;50.256;10.978;2024-01-30T03:31:52;-1.20;98.00
26575;DHT22;67165;50.256;10.978;2024-01-30T03:34:18;-1.20;98.00
26575;DHT22;67165;50.256;10.978;2024-01-30T03:36:44;-1.20;98.00
26575;DHT22;67165;50.256;10.978;2024-01-30T03:39:09;-1.30;98.00
26575;DHT22;67165;50.256;10.978;2024-01-30T03:41:35;-1.30;98.00
26575;DHT22;67165;50.256;10.978;2024-01-30T03:44:01;-1.40;98.00
26575;DHT22;67165;50.256;10.978;2024-01-30T03:46:27;-1.40;98.00
26575;DHT22;67165;50.256;10.978;2024-01-30T03:48:53;-1.40;98.00
26575;DHT22;67165;50.256;10.978;2024-01-30T03:51:19;-1.40;98.00
26575;DHT22;67165;50.256;10.978;2024-01-30T03:53:45;-1.50;98.00
26575;DHT22;67165;50.256;10.978;2024-01-30T03:56:13;-1.50;98.00
26575;DHT22;67165;50.256;10.978;2024-01-30T03:58:39;-1.50;98.00
26575;DHT22;67165;50.256;10.978;2024-01-30T04:01:05;-1.60;98.00
26575;DHT22;67165;50.256;10.978;2024-01-30T04:03:31;-1.60;98.00
26575;DHT22;67165;50.256;10.978;2024-01-30T04:05:57;-1.60;98.00
26575;DHT22;67165;50.256;10.978;2024-01-30T04:08:22;-1.60;98.00
26575;DHT22;67165;50.256;10.978;2024-01-30T04:10:48;-1.60;98.00
26575;DHT22;67165;50.256;10.978;2024-01-30T04:13:14;-1.70;98.00
26575;DHT22;67165;50.256;10.978;2024-01-30T04:15:40;-1.70;98.00
26575;DHT22;67165;50.256;10.978;2024-01-30T04:18:05;-1.70;98.00
26575;DHT22;67165;50.256;10.978;2024-01-30T04:20:31;-1.70;98.00
26575;DHT22;67165;50.256;10.978;2024-01-30T04:22:57;-1.70;98.00
26575;DHT22;67165;50.256;10.978;2024-01-30T04:25:23;-1.80;98.00
26575;DHT22;67165;50.256;10.978;2024-01-30T04:27:48;-1.80;98.00
26575;DHT22;67165;50.256;10.978;2024-01-30T04:30:14;-1.70;98.00
26575;DHT22;67165;50.256;10.978;2024-01-30T04:32:40;-1.70;98.00
26575;DHT22;67165;50.256;10.978;2024-01-30T04:35:06;-1.70;98.00
26575;DHT22;67165;50.256;10.978;2024-01-30T04:37:34;-1.80;98.00
26575;DHT22;67165;50.256;10.978;2024-01-30T04:40:00;-1.80;98.00
26575;DHT22;67165;50.256;10.978;2024-01-30T04:42:26;-1.90;98.00
26575;DHT22;67165;50.256;10.978;2024-01-30T04:44:52;-1.80;98.00
26575;DHT22;67165;50.256;10.978;2024-01-30T04:47:17;-1.80;98.00
26575;DHT22;67165;50.256;10.978;2024-01-30T04:49:43;-1.80;98.00
26575;DHT22;67165;50.256;10.978;2024-01-30T04:52:09;-1.80;98.00
26575;DHT22;67165;50.256;10.978;2024-01-30T04:54:35;-1.80;98.00
26575;DHT22;67165;50.256;10.978;2024-01-30T04:57:04;-1.80;98.00
26575;DHT22;67165;50.256;10.978;2024-01-30T04:59:34;-1.80;98.00
26575;DHT22;67165;50.256;10.978;2024-01-30T05:01:59;-1.80;98.00
26575;DHT22;67165;50.256;10.978;2024-01-30T05:04:25;-1.80;98.00
26575;DHT22;67165;50.256;10.978;2024-01-30T05:06:51;-1.90;98.00
26575;DHT22;67165;50.256;10.978;2024-01-30T05:09:16;-1.80;98.00
26575;DHT22;67165;50.256;10.978;2024-01-30T05:11:42;-1.90;98.00
26575;DHT22;67165;50.256;10.978;2024-01-30T05:14:08;-1.90;98.00
26575;DHT22;67165;50.256;10.978;2024-01-30T05:16:37;-1.90;98.00
26575;DHT22;67165;50.256;10.978;2024-01-30T05:19:03;-1.90;98.00
26575;DHT22;67165;50.256;10.978;2024-01-30T05:21:28;-1.80;98.00
26575;DHT22;67165;50.256;10.978;2024-01-30T05:23:54;-1.80;98.00
26575;DHT22;67165;50.256;10.978;2024-01-30T05:26:20;-1.90;98.00
26575;DHT22;67165;50.256;10.978;2024-01-30T05:28:46;-1.80;98.00
26575;DHT22;67165;50.256;10.978;2024-01-30T05:31:11;-1.80;98.00
26575;DHT22;67165;50.256;10.978;2024-01-30T05:33:37;-1.80;98.00
26575;DHT22;67165;50.256;10.978;2024-01-30T05:36:03;-1.80;98.00
26575;DHT22;67165;50.256;10.978;2024-01-30T05:38:29;-1.80;98.00
26575;DHT22;67165;50.256;10.978;2024-01-30T05:40:56;-1.90;98.00
26575;DHT22;67165;50.256;10.978;2024-01-30T05:43:23;-1.90;98.00
26575;DHT22;67165;50.256;10.978;2024-01-30T05:45:49;-1.90;98.00
26575;DHT22;67165;50.256;10.978;2024-01-30T05:48:15;-1.90;98.00
26575;DHT22;67165;50.256;10.978;2024-01-30T05:50:41;-1.90;98.00
26575;DHT22;67165;50.256;10.978;2024-01-30T05:53:07;-1.80;98.00
26575;DHT22;67165;50.256;10.978;2024-01-30T05:55:33;-1.90;98.00
26575;DHT22;67165;50.256;10.978;2024-01-30T05:57:58;-1.90;98.00
26575;DHT22;67165;50.256;10.978;2024-01-30T06:00:24;-1.90;98.00
26575;DHT22;67165;50.256;10.978;2024-01-30T06:02:50;-1.80;98.00
26575;DHT22;67165;50.256;10.978;2024-01-30T06:05:16;-1.80;98.00
26575;DHT22;67165;50.256;10.978;2024-01-30T06:07:41;-1.80;98.00
26575;DHT22;67165;50.256;10.978;2024-01-30T06:10:08;-1.80;98.00
26575;DHT22;67165;50.256;10.978;2024-01-30T06:12:34;-1.80;98.00
26575;DHT22;67165;50.256;10.978;2024-01-30T06:15:01;-1.80;98.00
26575;DHT22;67165;50.256;10.978;2024-01-30T06:17:27;-1.70;98.00
26575;DHT22;67165;50.256;10.978;2024-01-30T06:19:53;-1.70;98.00
26575;DHT22;67165;50.256;10.978;2024-01-30T06:22:19;-1.80;98.00
26575;DHT22;67165;50.256;10.978;2024-01-30T06:24:45;-1.80;98.00
26575;DHT22;67165;50.256;10.978;2024-01-30T06:27:13;-1.80;98.00
26575;DHT22;67165;50.256;10.978;2024-01-30T06:29:39;-1.80;98.00
26575;DHT22;67165;50.256;10.978;2024-01-30T06:32:06;-1.80;98.00
26575;DHT22;67165;50.256;10.978;2024-01-30T06:34:31;-1.80;98.00
26575;DHT22;67165;50.256;10.978;2024-01-30T06:36:57;-1.80;98.00
26575;DHT22;67165;50.256;10.978;2024-01-30T06:39:23;-1.80;98.00
26575;DHT22;67165;50.256;10.978;2024-01-30T06:41:49;-1.70;98.00
26575;DHT22;67165;50.256;10.978;2024-01-30T06:44:14;-1.70;98.00
26575;DHT22;67165;50.256;10.978;2024-01-30T06:46:40;-1.70;98.00
26575;DHT22;67165;50.256;10.978;2024-01-30T06:49:06;-1.70;98.00
26575;DHT22;67165;50.256;10.978;2024-01-30T06:51:32;-1.70;98.00
26575;DHT22;67165;50.256;10.978;2024-01-30T06:53:57;-1.60;98.00
26575;DHT22;67165;50.256;10.978;2024-01-30T06:56:23;-1.60;98.00
26575;DHT22;67165;50.256;10.978;2024-01-30T06:58:49;-1.50;98.00
26575;DHT22;67165;50.256;10.978;2024-01-30T07:01:16;-1.50;98.00
26575;DHT22;67165;50.256;10.978;2024-01-30T07:03:42;-1.50;98.00
26575;DHT22;67165;50.256;10.978;2024-01-30T07:06:08;-1.40;98.00
26575;DHT22;67165;50.256;10.978;2024-01-30T07:08:34;-1.40;98.00
26575;DHT22;67165;50.256;10.978;2024-01-30T07:11:00;-1.40;98.00
26575;DHT22;67165;50.256;10.978;2024-01-30T07:13:27;-1.30;98.00
26575;DHT22;67165;50.256;10.978;2024-01-30T07:15:54;-1.30;98.00
26575;DHT22;67165;50.256;10.978;2024-01-30T07:18:20;-1.20;98.00
26575;DHT22;67165;50.256;10.978;2024-01-30T07:20:45;-1.10;98.00
26575;DHT22;67165;50.256;10.978;2024-01-30T07:23:13;-1.10;98.00
26575;DHT22;67165;50.256;10.978;2024-01-30T07:25:41;-1.00;98.00
26575;DHT22;67165;50.256;10.978;2024-01-30T07:28:10;-0.90;98.00
26575;DHT22;67165;50.256;10.978;2024-01-30T07:30:37;-0.90;98.00
26575;DHT22;67165;50.256;10.978;2024-01-30T07:33:04;-0.80;98.00
26575;DHT22;67165;50.256;10.978;2024-01-30T07:35:30;-0.60;98.00
26575;DHT22;67165;50.256;10.978;2024-01-30T07:37:56;-0.50;98.00
26575;DHT22;67165;50.256;10.978;2024-01-30T07:40:22;-0.30;98.00
26575;DHT22;67165;50.256;10.978;2024-01-30T07:42:49;-0.20;98.00
26575;DHT22;67165;50.256;10.978;2024-01-30T07:45:15;0.00;98.00
26575;DHT22;67165;50.256;10.978;2024-01-30T07:47:40;0.20;98.00
26575;DHT22;67165;50.256;10.978;2024-01-30T07:50:08;0.40;98.00
26575;DHT22;67165;50.256;10.978;2024-01-30T07:52:34;0.50;98.00
26575;DHT22;67165;50.256;10.978;2024-01-30T07:55:00;0.60;98.00
26575;DHT22;67165;50.256;10.978;2024-01-30T07:57:26;0.60;98.00
26575;DHT22;67165;50.256;10.978;2024-01-30T07:59:52;0.70;98.00
26575;DHT22;67165;50.256;10.978;2024-01-30T08:02:17;0.70;98.00
26575;DHT22;67165;50.256;10.978;2024-01-30T08:04:43;0.70;98.00
26575;DHT22;67165;50.256;10.978;2024-01-30T08:07:09;0.80;98.00
26575;DHT22;67165;50.256;10.978;2024-01-30T08:09:35;0.80;98.00
26575;DHT22;67165;50.256;10.978;2024-01-30T08:12:00;0.80;98.00
26575;DHT22;67165;50.256;10.978;2024-01-30T08:14:27;0.80;98.00
26575;DHT22;67165;50.256;10.978;2024-01-30T08:16:53;0.90;98.00
26575;DHT22;67165;50.256;10.978;2024-01-30T08:19:19;0.90;98.00
26575;DHT22;67165;50.256;10.978;2024-01-30T08:21:45;1.00;98.00
26575;DHT22;67165;50.256;10.978;2024-01-30T08:24:10;1.20;98.00
26575;DHT22;67165;50.256;10.978;2024-01-30T08:26:36;1.30;98.00
26575;DHT22;67165;50.256;10.978;2024-01-30T08:29:02;1.30;98.00
26575;DHT22;67165;50.256;10.978;2024-01-30T08:31:28;1.50;98.00
26575;DHT22;67165;50.256;10.978;2024-01-30T08:33:54;1.50;98.00
26575;DHT22;67165;50.256;10.978;2024-01-30T08:36:20;1.60;98.00
26575;DHT22;67165;50.256;10.978;2024-01-30T08:38:46;1.60;98.00
26575;DHT22;67165;50.256;10.978;2024-01-30T08:41:11;1.70;98.00
26575;DHT22;67165;50.256;10.978;2024-01-30T08:43:37;1.70;98.00
26575;DHT22;67165;50.256;10.978;2024-01-30T08:46:03;1.80;98.00
26575;DHT22;67165;50.256;10.978;2024-01-30T08:48:29;1.80;98.00
26575;DHT22;67165;50.256;10.978;2024-01-30T08:50:55;1.90;98.00
26575;DHT22;67165;50.256;10.978;2024-01-30T08:53:21;2.00;98.00
26575;DHT22;67165;50.256;10.978;2024-01-30T08:55:46;2.10;98.00
26575;DHT22;67165;50.256;10.978;2024-01-30T08:58:12;2.10;98.00
26575;DHT22;67165;50.256;10.978;2024-01-30T09:00:38;2.20;98.00
26575;DHT22;67165;50.256;10.978;2024-01-30T09:03:04;2.20;98.00
26575;DHT22;67165;50.256;10.978;2024-01-30T09:05:30;2.30;98.00
26575;DHT22;67165;50.256;10.978;2024-01-30T09:07:55;2.30;98.00
26575;DHT22;67165;50.256;10.978;2024-01-30T09:10:21;2.30;98.00
26575;DHT22;67165;50.256;10.978;2024-01-30T09:12:47;2.30;98.00
26575;DHT22;67165;50.256;10.978;2024-01-30T09:15:13;2.30;98.00
26575;DHT22;67165;50.256;10.978;2024-01-30T09:17:39;2.40;98.00
26575;DHT22;67165;50.256;10.978;2024-01-30T09:20:05;2.50;98.00
26575;DHT22;67165;50.256;10.978;2024-01-30T09:22:31;2.60;98.00
26575;DHT22;67165;50.256;10.978;2024-01-30T09:24:57;2.60;98.00
26575;DHT22;67165;50.256;10.978;2024-01-30T09:27:23;2.60;98.00
26575;DHT22;67165;50.256;10.978;2024-01-30T09:29:49;2.60;98.00
26575;DHT22;67165;50.256;10.978;2024-01-30T09:32:15;2.70;98.00
26575;DHT22;67165;50.256;10.978;2024-01-30T09:34:41;2.70;98.00
26575;DHT22;67165;50.256;10.978;2024-01-30T09:37:07;2.70;98.00
26575;DHT22;67165;50.256;10.978;2024-01-30T09:39:33;2.80;98.00
26575;DHT22;67165;50.256;10.978;2024-01-30T09:42:05;2.80;98.00
26575;DHT22;67165;50.256;10.978;2024-01-30T09:44:32;2.90;98.00
26575;DHT22;67165;50.256;10.978;2024-01-30T09:47:00;3.00;98.00
26575;DHT22;67165;50.256;10.978;2024-01-30T09:49:33;3.00;98.00
26575;DHT22;67165;50.256;10.978;2024-01-30T09:52:00;3.00;98.00
26575;DHT22;67165;50.256;10.978;2024-01-30T09:54:25;3.10;98.00
26575;DHT22;67165;50.256;10.978;2024-01-30T09:56:51;3.10;98.00
26575;DHT22;67165;50.256;10.978;2024-01-30T09:59:17;3.20;98.00
26575;DHT22;67165;50.256;10.978;2024-01-30T10:01:43;3.20;98.00
26575;DHT22;67165;50.256;10.978;2024-01-30T10:04:08;3.20;98.00
26575;DHT22;67165;50.256;10.978;2024-01-30T10:06:35;3.20;98.00
26575;DHT22;67165;50.256;10.978;2024-01-30T10:09:00;3.40;98.00
26575;DHT22;67165;50.256;10.978;2024-01-30T10:11:26;3.40;98.00
26575;DHT22;67165;50.256;10.978;2024-01-30T10:13:52;3.40;98.00
26575;DHT22;67165;50.256;10.978;2024-01-30T10:16:18;3.40;98.00
26575;DHT22;67165;50.256;10.978;2024-01-30T10:18:44;3.50;98.00
26575;DHT22;67165;50.256;10.978;2024-01-30T10:21:10;3.60;98.00
26575;DHT22;67165;50.256;10.978;2024-01-30T10:23:37;3.60;98.00
26575;DHT22;67165;50.256;10.978;2024-01-30T10:26:04;3.70;98.00
26575;DHT22;67165;50.256;10.978;2024-01-30T10:28:35;3.80;98.00
26575;DHT22;67165;50.256;10.978;2024-01-30T10:31:06;3.80;98.00
26575;DHT22;67165;50.256;10.978;2024-01-30T10:33:32;3.90;98.00
26575;DHT22;67165;50.256;10.978;2024-01-30T10:36:05;4.00;98.00
26575;DHT22;67165;50.256;10.978;2024-01-30T10:38:32;4.10;98.00
26575;DHT22;67165;50.256;10.978;2024-01-30T10:41:02;4.20;98.00
26575;DHT22;67165;50.256;10.978;2024-01-30T10:43:32;4.20;98.00
26575;DHT22;67165;50.256;10.978;2024-01-30T10:46:10;4.30;98.00
26575;DHT22;67165;50.256;10.978;2024-01-30T10:48:41;4.40;98.00
26575;DHT22;67165;50.256;10.978;2024-01-30T10:51:09;4.30;98.00
26575;DHT22;67165;50.256;10.978;2024-01-30T10:53:35;4.40;98.00
26575;DHT22;67165;50.256;10.978;2024-01-30T10:56:03;4.50;98.00
26575;DHT22;67165;50.256;10.978;2024-01-30T10:58:30;4.60;98.00
26575;DHT22;67165;50.256;10.978;2024-01-30T11:00:56;4.60;98.00
26575;DHT22;67165;50.256;10.978;2024-01-30T11:03:23;4.70;98.00
26575;DHT22;67165;50.256;10.978;2024-01-30T11:05:50;4.70;98.00
26575;DHT22;67165;50.256;10.978;2024-01-30T11:08:26;4.80;98.00
26575;DHT22;67165;50.256;10.978;2024-01-30T11:10:58;4.90;98.00
26575;DHT22;67165;50.256;10.978;2024-01-30T11:13:30;4.90;98.00
26575;DHT22;67165;50.256;10.978;2024-01-30T11:16:04;5.10;98.00
26575;DHT22;67165;50.256;10.978;2024-01-30T11:18:31;5.30;98.00
26575;DHT22;67165;50.256;10.978;2024-01-30T11:21:01;5.30;98.00
26575;DHT22;67165;50.256;10.978;2024-01-30T11:23:27;5.30;98.00
26575;DHT22;67165;50.256;10.978;2024-01-30T11:25:54;5.40;98.00
26575;DHT22;67165;50.256;10.978;2024-01-30T11:28:21;5.50;98.00
26575;DHT22;67165;50.256;10.978;2024-01-30T11:30:47;5.50;98.00
26575;DHT22;67165;50.256;10.978;2024-01-30T11:33:30;5.50;98.00
26575;DHT22;67165;50.256;10.978;2024-01-30T11:35:58;5.50;98.00
26575;DHT22;67165;50.256;10.978;2024-01-30T11:38:26;5.50;98.00
26575;DHT22;67165;50.256;10.978;2024-01-30T11:40:54;5.60;98.00
26575;DHT22;67165;50.256;10.978;2024-01-30T11:43:20;5.50;98.00
26575;DHT22;67165;50.256;10.978;2024-01-30T11:45:46;5.50;98.00
26575;DHT22;67165;50.256;10.978;2024-01-30T11:48:12;5.50;98.00
26575;DHT22;67165;50.256;10.978;2024-01-30T11:50:39;5.50;98.00
26575;DHT22;67165;50.256;10.978;2024-01-30T11:53:06;5.50;98.00
26575;DHT22;67165;50.256;10.978;2024-01-30T11:55:32;5.50;98.00
26575;DHT22;67165;50.256;10.978;2024-01-30T11:57:58;5.50;98.00
26575;DHT22;67165;50.256;10.978;2024-01-30T12:00:25;5.60;98.00
26575;DHT22;67165;50.256;10.978;2024-01-30T12:02:52;5.70;98.00
26575;DHT22;67165;50.256;10.978;2024-01-30T12:05:21;5.60;98.00
26575;DHT22;67165;50.256;10.978;2024-01-30T12:07:47;5.60;98.00
26575;DHT22;67165;50.256;10.978;2024-01-30T12:10:13;5.60;98.00
26575;DHT22;67165;50.256;10.978;2024-01-30T12:12:45;5.50;98.00
26575;DHT22;67165;50.256;10.978;2024-01-30T12:15:11;5.60;98.00
26575;DHT22;67165;50.256;10.978;2024-01-30T12:17:37;5.60;98.00
26575;DHT22;67165;50.256;10.978;2024-01-30T12:20:13;5.60;98.00
26575;DHT22;67165;50.256;10.978;2024-01-30T12:22:41;5.70;98.00
26575;DHT22;67165;50.256;10.978;2024-01-30T12:25:14;5.90;98.00
26575;DHT22;67165;50.256;10.978;2024-01-30T12:27:44;6.00;98.00
26575;DHT22;67165;50.256;10.978;2024-01-30T12:30:11;6.10;98.00
26575;DHT22;67165;50.256;10.978;2024-01-30T12:32:40;6.00;98.00
26575;DHT22;67165;50.256;10.978;2024-01-30T12:35:17;6.10;98.00
26575;DHT22;67165;50.256;10.978;2024-01-30T12:37:44;6.10;98.00
26575;DHT22;67165;50.256;10.978;2024-01-30T12:40:19;6.10;98.00
26575;DHT22;67165;50.256;10.978;2024-01-30T12:42:47;6.20;98.00
26575;DHT22;67165;50.256;10.978;2024-01-30T12:45:15;6.20;98.00
26575;DHT22;67165;50.256;10.978;2024-01-30T12:47:42;6.30;98.00
26575;DHT22;67165;50.256;10.978;2024-01-30T12:50:07;6.40;98.00
26575;DHT22;67165;50.256;10.978;2024-01-30T12:52:35;6.40;98.00
26575;DHT22;67165;50.256;10.978;2024-01-30T12:55:01;6.40;98.00
26575;DHT22;67165;50.256;10.978;2024-01-30T12:57:29;6.50;98.00
26575;DHT22;67165;50.256;10.978;2024-01-30T12:59:55;6.50;98.00
26575;DHT22;67165;50.256;10.978;2024-01-30T13:02:20;6.50;98.00
26575;DHT22;67165;50.256;10.978;2024-01-30T13:04:48;6.50;98.00
26575;DHT22;67165;50.256;10.978;2024-01-30T13:07:13;6.50;98.00
26575;DHT22;67165;50.256;10.978;2024-01-30T13:09:39;6.40;98.00
26575;DHT22;67165;50.256;10.978;2024-01-30T13:12:05;6.40;98.00
26575;DHT22;67165;50.256;10.978;2024-01-30T13:14:31;6.50;98.00
26575;DHT22;67165;50.256;10.978;2024-01-30T13:16:56;6.50;98.00
26575;DHT22;67165;50.256;10.978;2024-01-30T13:19:22;6.50;98.00
26575;DHT22;67165;50.256;10.978;2024-01-30T13:21:48;6.50;98.00
26575;DHT22;67165;50.256;10.978;2024-01-30T13:24:14;6.50;98.00
26575;DHT22;67165;50.256;10.978;2024-01-30T13:26:40;6.50;98.00
26575;DHT22;67165;50.256;10.978;2024-01-30T13:29:06;6.50;98.00
26575;DHT22;67165;50.256;10.978;2024-01-30T13:31:32;6.40;98.00
26575;DHT22;67165;50.256;10.978;2024-01-30T13:33:58;6.40;98.00
26575;DHT22;67165;50.256;10.978;2024-01-30T13:36:24;6.50;98.00
26575;DHT22;67165;50.256;10.978;2024-01-30T13:38:49;6.40;98.00
26575;DHT22;67165;50.256;10.978;2024-01-30T13:41:15;6.40;98.00
26575;DHT22;67165;50.256;10.978;2024-01-30T13:43:49;6.30;98.00
26575;DHT22;67165;50.256;10.978;2024-01-30T13:46:15;6.20;98.00
26575;DHT22;67165;50.256;10.978;2024-01-30T13:48:40;6.30;98.00
26575;DHT22;67165;50.256;10.978;2024-01-30T13:51:06;6.30;98.00
26575;DHT22;67165;50.256;10.978;2024-01-30T13:53:32;6.40;98.00
26575;DHT22;67165;50.256;10.978;2024-01-30T13:55:58;6.40;98.00
26575;DHT22;67165;50.256;10.978;2024-01-30T13:58:23;6.50;98.00
26575;DHT22;67165;50.256;10.978;2024-01-30T14:00:49;6.50;98.00
26575;DHT22;67165;50.256;10.978;2024-01-30T14:03:15;6.40;98.00
26575;DHT22;67165;50.256;10.978;2024-01-30T14:05:41;6.40;98.00
26575;DHT22;67165;50.256;10.978;2024-01-30T14:08:06;6.40;98.00
26575;DHT22;67165;50.256;10.978;2024-01-30T14:10:34;6.30;98.00
26575;DHT22;67165;50.256;10.978;2024-01-30T14:12:59;6.30;98.00
26575;DHT22;67165;50.256;10.978;2024-01-30T14:15:25;6.30;98.00
26575;DHT22;67165;50.256;10.978;2024-01-30T14:17:51;6.30;98.00
26575;DHT22;67165;50.256;10.978;2024-01-30T14:20:17;6.30;98.00
26575;DHT22;67165;50.256;10.978;2024-01-30T14:22:43;6.30;98.00
26575;DHT22;67165;50.256;10.978;2024-01-30T14:25:09;6.40;98.00
26575;DHT22;67165;50.256;10.978;2024-01-30T14:27:35;6.40;98.00
26575;DHT22;67165;50.256;10.978;2024-01-30T14:30:02;6.40;98.00
26575;DHT22;67165;50.256;10.978;2024-01-30T14:32:28;6.40;98.00
26575;DHT22;67165;50.256;10.978;2024-01-30T14:34:54;6.40;98.00
26575;DHT22;67165;50.256;10.978;2024-01-30T14:37:21;6.40;98.00
26575;DHT22;67165;50.256;10.978;2024-01-30T14:39:47;6.30;98.00
26575;DHT22;67165;50.256;10.978;2024-01-30T14:42:13;6.30;98.00
26575;DHT22;67165;50.256;10.978;2024-01-30T14:44:39;6.30;98.00
26575;DHT22;67165;50.256;10.978;2024-01-30T14:47:05;6.30;98.00
26575;DHT22;67165;50.256;10.978;2024-01-30T14:49:31;6.20;98.00
26575;DHT22;67165;50.256;10.978;2024-01-30T14:51:57;6.10;98.00
26575;DHT22;67165;50.256;10.978;2024-01-30T14:54:24;6.00;98.00
26575;DHT22;67165;50.256;10.978;2024-01-30T14:56:51;6.00;98.00
26575;DHT22;67165;50.256;10.978;2024-01-30T14:59:17;5.90;98.00
26575;DHT22;67165;50.256;10.978;2024-01-30T15:01:43;5.90;98.00
26575;DHT22;67165;50.256;10.978;2024-01-30T15:04:10;5.90;98.00
26575;DHT22;67165;50.256;10.978;2024-01-30T15:06:37;5.80;98.00
26575;DHT22;67165;50.256;10.978;2024-01-30T15:09:03;5.80;98.00
26575;DHT22;67165;50.256;10.978;2024-01-30T15:11:28;5.70;98.00
26575;DHT22;67165;50.256;10.978;2024-01-30T15:13:54;5.70;98.00
26575;DHT22;67165;50.256;10.978;2024-01-30T15:16:20;5.60;98.00
26575;DHT22;67165;50.256;10.978;2024-01-30T15:18:46;5.60;98.00